sensor_id;sensor_type;location;lat;lon;timestamp;temperature;humidity
14103;DHT22;7129;48.832;12.472;2022-12-05T00:41:43;5.20;99.90
14103;DHT22;7129;48.832;12.472;2022-12-05T05:45:30;4.30;99.90
14103;DHT22;7129;48.832;12.472;2022-12-05T05:50:32;4.20;99.90
14103;DHT22;7129;48.832;12.472;2022-12-05T05:55:34;4.10;99.90
14103;DHT22;7129;48.832;12.472;2022-12-05T06:00:37;4.00;99.90
14103;DHT22;7129;48.832;12.472;2022-12-05T06:05:40;4.00;99.90
14103;DHT22;7129;48.832;12.472;2022-12-05T06:10:41;4.00;99.90
14103;DHT22;7129;48.832;12.472;2022-12-05T06:15:45;4.10;99.90
14103;DHT22;7129;48.832;12.472;2022-12-05T06:20:51;4.00;99.90
14103;DHT22;7129;48.832;12.472;2022-12-05T06:25:54;4.00;99.90
14103;DHT22;7129;48.832;12.472;2022-12-05T06:30:58;4.00;99.90
14103;DHT22;7129;48.832;12.472;2022-12-05T06:36:02;4.00;99.90
14103;DHT22;7129;48.832;12.472;2022-12-05T06:41:04;4.00;99.90
14103;DHT22;7129;48.832;12.472;2022-12-05T06:46:16;4.00;99.90
14103;DHT22;7129;48.832;12.472;2022-12-05T06:51:24;4.00;99.90
14103;DHT22;7129;48.832;12.472;2022-12-05T06:56:26;4.10;99.90
14103;DHT22;7129;48.832;12.472;2022-12-05T07:01:53;3.90;99.90
14103;DHT22;7129;48.832;12.472;2022-12-05T07:06:55;4.00;99.90
14103;DHT22;7129;48.832;12.472;2022-12-05T07:12:01;3.90;99.90
14103;DHT22;7129;48.832;12.472;2022-12-05T07:17:05;4.00;99.90
14103;DHT22;7129;48.832;12.472;2022-12-05T07:27:18;4.00;99.90
14103;DHT22;7129;48.832;12.472;2022-12-05T07:38:15;4.00;99.90
14103;DHT22;7129;48.832;12.472;2022-12-05T08:05:32;4.00;99.90
14103;DHT22;7129;48.832;12.472;2022-12-05T08:11:04;3.90;99.90
14103;DHT22;7129;48.832;12.472;2022-12-05T08:16:09;3.90;99.90
14103;DHT22;7129;48.832;12.472;2022-12-05T10:09:30;4.40;99.90
14103;DHT22;7129;48.832;12.472;2022-12-05T10:14:42;4.50;99.90
14103;DHT22;7129;48.832;12.472;2022-12-05T10:19:52;4.50;99.90
14103;DHT22;7129;48.832;12.472;2022-12-05T10:25:18;4.50;99.90
14103;DHT22;7129;48.832;12.472;2022-12-05T10:30:30;4.50;99.90
14103;DHT22;7129;48.832;12.472;2022-12-05T10:35:38;4.50;99.90
14103;DHT22;7129;48.832;12.472;2022-12-05T10:40:43;4.40;99.90
14103;DHT22;7129;48.832;12.472;2022-12-05T10:46:01;4.50;99.90
14103;DHT22;7129;48.832;12.472;2022-12-05T10:51:22;4.30;99.90
14103;DHT22;7129;48.832;12.472;2022-12-05T10:56:42;4.40;99.90
14103;DHT22;7129;48.832;12.472;2022-12-05T11:01:50;4.40;99.90
14103;DHT22;7129;48.832;12.472;2022-12-05T11:12:19;4.40;99.90
14103;DHT22;7129;48.832;12.472;2022-12-05T11:22:33;4.30;99.90
14103;DHT22;7129;48.832;12.472;2022-12-05T11:27:37;4.30;99.90
14103;DHT22;7129;48.832;12.472;2022-12-05T11:32:39;4.40;99.90
14103;DHT22;7129;48.832;12.472;2022-12-05T11:37:45;4.50;99.90
14103;DHT22;7129;48.832;12.472;2022-12-05T11:43:15;4.60;99.90
14103;DHT22;7129;48.832;12.472;2022-12-05T11:48:48;4.70;99.90
14103;DHT22;7129;48.832;12.472;2022-12-05T12:05:34;4.70;99.90
14103;DHT22;7129;48.832;12.472;2022-12-05T12:21:25;4.50;99.90
14103;DHT22;7129;48.832;12.472;2022-12-05T12:26:45;4.60;99.90
14103;DHT22;7129;48.832;12.472;2022-12-05T12:31:59;4.60;99.90
14103;DHT22;7129;48.832;12.472;2022-12-05T12:37:08;4.60;99.90
14103;DHT22;7129;48.832;12.472;2022-12-05T12:42:45;4.70;99.90
14103;DHT22;7129;48.832;12.472;2022-12-05T12:48:02;4.70;99.90
14103;DHT22;7129;48.832;12.472;2022-12-05T12:58:46;4.60;99.90
14103;DHT22;7129;48.832;12.472;2022-12-05T13:03:53;4.60;99.90
14103;DHT22;7129;48.832;12.472;2022-12-05T13:09:08;4.70;99.90
14103;DHT22;7129;48.832;12.472;2022-12-05T13:14:16;4.70;99.90
14103;DHT22;7129;48.832;12.472;2022-12-05T13:19:26;4.80;99.90
14103;DHT22;7129;48.832;12.472;2022-12-05T13:24:31;4.70;99.90
14103;DHT22;7129;48.832;12.472;2022-12-05T13:29:37;4.70;99.90
14103;DHT22;7129;48.832;12.472;2022-12-05T13:34:45;4.70;99.90
14103;DHT22;7129;48.832;12.472;2022-12-05T13:39:52;4.90;99.90
14103;DHT22;7129;48.832;12.472;2022-12-05T13:45:16;4.80;99.90
14103;DHT22;7129;48.832;12.472;2022-12-05T13:50:24;4.80;99.90
14103;DHT22;7129;48.832;12.472;2022-12-05T13:55:33;4.80;99.90
14103;DHT22;7129;48.832;12.472;2022-12-05T14:00:35;4.80;99.90
14103;DHT22;7129;48.832;12.472;2022-12-05T14:05:48;4.80;99.90
14103;DHT22;7129;48.832;12.472;2022-12-05T14:11:09;4.80;99.90
14103;DHT22;7129;48.832;12.472;2022-12-05T14:26:58;4.60;99.90
14103;DHT22;7129;48.832;12.472;2022-12-05T14:32:17;4.60;99.90
14103;DHT22;7129;48.832;12.472;2022-12-05T14:37:26;4.50;99.90
14103;DHT22;7129;48.832;12.472;2022-12-05T14:42:35;4.50;99.90
14103;DHT22;7129;48.832;12.472;2022-12-05T14:47:38;4.40;99.90
14103;DHT22;7129;48.832;12.472;2022-12-05T14:52:40;4.40;99.90
14103;DHT22;7129;48.832;12.472;2022-12-05T14:57:47;4.30;99.90
14103;DHT22;7129;48.832;12.472;2022-12-05T15:02:51;4.40;99.90
14103;DHT22;7129;48.832;12.472;2022-12-05T15:07:56;4.40;99.90
14103;DHT22;7129;48.832;12.472;2022-12-05T15:13:03;4.40;99.90
14103;DHT22;7129;48.832;12.472;2022-12-05T15:18:13;4.30;99.90
14103;DHT22;7129;48.832;12.472;2022-12-05T15:23:39;4.20;99.90
14103;DHT22;7129;48.832;12.472;2022-12-05T15:28:59;4.20;99.90
14103;DHT22;7129;48.832;12.472;2022-12-05T15:39:18;4.10;99.90
14103;DHT22;7129;48.832;12.472;2022-12-05T15:49:40;4.30;99.90
14103;DHT22;7129;48.832;12.472;2022-12-05T15:54:43;4.40;99.90
14103;DHT22;7129;48.832;12.472;2022-12-05T15:59:49;4.40;99.90
14103;DHT22;7129;48.832;12.472;2022-12-05T16:04:55;4.40;99.90
14103;DHT22;7129;48.832;12.472;2022-12-05T16:09:59;4.40;99.90
14103;DHT22;7129;48.832;12.472;2022-12-05T16:15:06;4.40;99.90
14103;DHT22;7129;48.832;12.472;2022-12-05T16:20:35;4.40;99.90
14103;DHT22;7129;48.832;12.472;2022-12-05T16:31:54;4.40;99.90
14103;DHT22;7129;48.832;12.472;2022-12-05T16:37:00;4.40;99.90
14103;DHT22;7129;48.832;12.472;2022-12-05T16:42:04;4.40;99.90
14103;DHT22;7129;48.832;12.472;2022-12-05T16:53:31;4.40;99.90
14103;DHT22;7129;48.832;12.472;2022-12-05T16:58:39;4.30;99.90
14103;DHT22;7129;48.832;12.472;2022-12-05T17:03:56;4.20;99.90
14103;DHT22;7129;48.832;12.472;2022-12-05T17:20:11;4.40;99.90
14103;DHT22;7129;48.832;12.472;2022-12-05T17:59:20;4.40;99.90
14103;DHT22;7129;48.832;12.472;2022-12-05T19:46:35;4.50;99.90
14103;DHT22;7129;48.832;12.472;2022-12-05T19:51:44;4.50;99.90
14103;DHT22;7129;48.832;12.472;2022-12-05T19:56:53;4.60;99.90
14103;DHT22;7129;48.832;12.472;2022-12-05T20:01:59;4.60;99.90
14103;DHT22;7129;48.832;12.472;2022-12-05T20:07:01;4.60;99.90
14103;DHT22;7129;48.832;12.472;2022-12-05T20:12:03;4.70;99.90
14103;DHT22;7129;48.832;12.472;2022-12-05T20:17:07;4.60;99.90
14103;DHT22;7129;48.832;12.472;2022-12-05T20:22:09;4.60;99.90
14103;DHT22;7129;48.832;12.472;2022-12-05T20:27:54;4.50;99.90
14103;DHT22;7129;48.832;12.472;2022-12-05T20:33:23;4.50;99.90
14103;DHT22;7129;48.832;12.472;2022-12-05T20:44:33;4.50;99.90
14103;DHT22;7129;48.832;12.472;2022-12-05T20:49:40;4.40;99.90
14103;DHT22;7129;48.832;12.472;2022-12-05T21:00:19;4.30;99.90
14103;DHT22;7129;48.832;12.472;2022-12-05T21:10:35;4.30;99.90
14103;DHT22;7129;48.832;12.472;2022-12-05T21:15:37;4.20;99.90
14103;DHT22;7129;48.832;12.472;2022-12-05T21:20:39;4.20;99.90
14103;DHT22;7129;48.832;12.472;2022-12-05T21:25:42;4.30;99.90
14103;DHT22;7129;48.832;12.472;2022-12-05T21:30:44;4.30;99.90
14103;DHT22;7129;48.832;12.472;2022-12-05T21:35:52;4.30;99.90
14103;DHT22;7129;48.832;12.472;2022-12-05T21:40:56;4.20;99.90
14103;DHT22;7129;48.832;12.472;2022-12-05T21:45:58;4.10;99.90
14103;DHT22;7129;48.832;12.472;2022-12-05T21:51:04;4.10;99.90
14103;DHT22;7129;48.832;12.472;2022-12-05T21:56:11;4.20;99.90
14103;DHT22;7129;48.832;12.472;2022-12-05T22:01:16;4.10;99.90
14103;DHT22;7129;48.832;12.472;2022-12-05T22:06:19;4.10;99.90
14103;DHT22;7129;48.832;12.472;2022-12-05T22:11:23;4.10;99.90
14103;DHT22;7129;48.832;12.472;2022-12-05T22:16:25;4.10;99.90
14103;DHT22;7129;48.832;12.472;2022-12-05T22:21:27;4.10;99.90
14103;DHT22;7129;48.832;12.472;2022-12-05T22:26:39;4.20;99.90
14103;DHT22;7129;48.832;12.472;2022-12-05T22:31:41;4.20;99.90
14103;DHT22;7129;48.832;12.472;2022-12-05T22:36:43;4.20;99.90
14103;DHT22;7129;48.832;12.472;2022-12-05T22:41:46;4.20;99.90
14103;DHT22;7129;48.832;12.472;2022-12-05T22:46:49;4.20;99.90
14103;DHT22;7129;48.832;12.472;2022-12-05T22:51:51;4.20;99.90
14103;DHT22;7129;48.832;12.472;2022-12-05T22:56:54;4.10;99.90
14103;DHT22;7129;48.832;12.472;2022-12-05T23:01:56;4.00;99.90
14103;DHT22;7129;48.832;12.472;2022-12-05T23:06:58;4.00;99.90
14103;DHT22;7129;48.832;12.472;2022-12-05T23:12:03;4.00;99.90
14103;DHT22;7129;48.832;12.472;2022-12-05T23:17:06;4.00;99.90
14103;DHT22;7129;48.832;12.472;2022-12-05T23:27:19;4.00;99.90
14103;DHT22;7129;48.832;12.472;2022-12-05T23:32:22;4.00;99.90
14103;DHT22;7129;48.832;12.472;2022-12-05T23:37:24;3.90;99.90
14103;DHT22;7129;48.832;12.472;2022-12-05T23:42:28;4.00;99.90
14103;DHT22;7129;48.832;12.472;2022-12-05T23:47:29;3.90;99.90
14103;DHT22;7129;48.832;12.472;2022-12-05T23:52:32;3.90;99.90
14103;DHT22;7129;48.832;12.472;2022-12-05T23:57:38;3.80;99.90
